createdAt,value
2022-11-18T00:00:34.355Z,9.30
2022-11-18T00:03:38.014Z,9.20
2022-11-18T00:06:42.725Z,9.20
2022-11-18T00:09:45.875Z,9.20
2022-11-18T00:13:06.772Z,9.30
2022-11-18T00:16:12.932Z,9.30
2022-11-18T00:19:17.399Z,9.20
2022-11-18T00:22:26.919Z,9.30
2022-11-18T00:25:34.839Z,9.20
2022-11-18T00:28:38.757Z,9.20
2022-11-18T00:31:42.444Z,9.90
2022-11-18T00:34:45.966Z,9.20
2022-11-18T00:37:50.887Z,9.20
2022-11-18T00:41:01.881Z,9.10
2022-11-18T00:44:09.353Z,9.00
2022-11-18T00:47:13.030Z,9.10
2022-11-18T00:50:18.501Z,9.00
2022-11-18T00:53:28.242Z,8.90
2022-11-18T00:56:31.755Z,8.90
2022-11-18T00:59:35.145Z,8.80
2022-11-18T01:02:38.793Z,8.80
2022-11-18T01:05:43.057Z,8.80
2022-11-18T01:08:48.350Z,8.70
2022-11-18T01:12:09.049Z,8.70
2022-11-18T01:15:12.356Z,8.70
2022-11-18T01:18:17.692Z,8.70
2022-11-18T01:21:21.276Z,8.70
2022-11-18T01:24:26.710Z,8.60
2022-11-18T01:27:29.987Z,8.60
2022-11-18T01:30:37.647Z,8.60
2022-11-18T01:33:45.066Z,8.70
2022-11-18T01:36:48.470Z,10.50
2022-11-18T01:39:53.360Z,8.70
2022-11-18T01:42:56.868Z,8.70
2022-11-18T01:46:00.343Z,8.70
2022-11-18T01:49:09.813Z,8.80
2022-11-18T01:52:15.930Z,8.80
2022-11-18T01:55:28.486Z,8.80
2022-11-18T01:58:38.529Z,10.90
2022-11-18T02:01:42.861Z,8.80
2022-11-18T02:04:52.206Z,8.80
2022-11-18T02:07:57.899Z,8.80
2022-11-18T02:11:02.951Z,8.90
2022-11-18T02:14:11.144Z,9.70
2022-11-18T02:17:31.488Z,8.90
2022-11-18T02:20:38.866Z,8.80
2022-11-18T02:24:27.523Z,8.80
2022-11-18T02:28:07.998Z,8.80
2022-11-18T02:31:24.489Z,8.80
2022-11-18T02:34:46.451Z,8.90
2022-11-18T02:37:56.622Z,8.80
2022-11-18T02:41:07.469Z,8.80
2022-11-18T02:44:16.088Z,8.70
2022-11-18T02:47:25.635Z,8.60
2022-11-18T02:50:34.888Z,8.60
2022-11-18T02:53:42.813Z,8.50
2022-11-18T02:56:48.518Z,8.50
2022-11-18T02:59:51.646Z,8.50
2022-11-18T03:02:56.706Z,8.40
2022-11-18T03:06:27.388Z,8.40
2022-11-18T03:09:36.000Z,8.40
2022-11-18T03:12:49.778Z,8.40
2022-11-18T03:16:03.811Z,8.40
2022-11-18T03:19:20.017Z,8.40
2022-11-18T03:22:30.505Z,8.30
2022-11-18T03:25:44.397Z,9.00
2022-11-18T03:28:57.649Z,8.30
2022-11-18T03:32:07.731Z,8.30
2022-11-18T03:35:20.477Z,8.30
2022-11-18T03:38:33.984Z,8.30
2022-11-18T03:41:42.683Z,8.30
2022-11-18T03:44:55.635Z,8.30
2022-11-18T03:48:06.307Z,8.30
2022-11-18T03:51:17.558Z,8.20
2022-11-18T03:54:26.000Z,8.20
2022-11-18T03:57:38.398Z,8.20
2022-11-18T04:00:48.164Z,8.80
2022-11-18T04:03:51.836Z,7.70
2022-11-18T04:07:05.203Z,7.50
2022-11-18T04:10:16.650Z,8.10
2022-11-18T04:13:25.589Z,8.10
2022-11-18T04:16:29.219Z,8.10
2022-11-18T04:19:32.802Z,8.10
2022-11-18T04:22:37.860Z,8.10
2022-11-18T04:25:41.495Z,8.10
2022-11-18T04:28:45.132Z,8.10
2022-11-18T04:31:48.818Z,8.10
2022-11-18T04:34:52.904Z,8.10
2022-11-18T04:37:58.628Z,8.20
2022-11-18T04:41:02.452Z,7.50
2022-11-18T04:44:13.444Z,8.00
2022-11-18T04:47:17.617Z,8.30
2022-11-18T04:50:30.748Z,9.70
2022-11-18T04:53:36.157Z,6.30
2022-11-18T04:56:45.788Z,8.20
2022-11-18T04:59:52.689Z,7.80
2022-11-18T05:02:56.796Z,8.10
2022-11-18T05:06:03.475Z,8.20
2022-11-18T05:09:08.572Z,8.60
2022-11-18T05:12:32.753Z,10.20
2022-11-18T05:15:36.776Z,8.00
2022-11-18T05:18:40.273Z,9.10
2022-11-18T05:21:44.457Z,9.50
2022-11-18T05:24:53.331Z,8.10
2022-11-18T05:27:57.003Z,8.30
2022-11-18T05:31:01.318Z,9.10
2022-11-18T05:34:05.128Z,8.40
2022-11-18T05:37:09.120Z,8.50
2022-11-18T05:40:15.204Z,8.50
2022-11-18T05:43:17.563Z,8.50
2022-11-18T05:46:21.044Z,8.50
2022-11-18T05:49:25.055Z,8.50
2022-11-18T05:52:29.758Z,8.50
2022-11-18T05:55:41.915Z,8.50
2022-11-18T05:58:45.182Z,8.40
2022-11-18T06:01:55.973Z,8.40
2022-11-18T06:05:04.639Z,8.00
2022-11-18T06:08:11.556Z,7.80
2022-11-18T06:11:20.840Z,8.30
2022-11-18T06:14:32.747Z,8.40
2022-11-18T06:17:44.014Z,8.40
2022-11-18T06:20:47.948Z,8.40
2022-11-18T06:23:52.347Z,8.40
2022-11-18T06:26:57.426Z,8.40
2022-11-18T06:30:02.904Z,8.40
2022-11-18T06:33:07.030Z,8.30
2022-11-18T06:36:11.966Z,8.30
2022-11-18T06:39:20.753Z,8.30
2022-11-18T06:42:46.019Z,8.20
2022-11-18T06:46:08.679Z,8.10
2022-11-18T06:49:13.442Z,8.10
2022-11-18T06:52:17.053Z,8.00
2022-11-18T06:55:24.468Z,7.90
2022-11-18T06:58:32.375Z,7.80
2022-11-18T07:01:43.018Z,7.80
2022-11-18T07:04:49.036Z,7.90
2022-11-18T07:07:58.288Z,7.60
2022-11-18T07:11:11.986Z,7.70
2022-11-18T07:14:26.483Z,8.10
2022-11-18T07:17:48.651Z,7.80
2022-11-18T07:20:58.485Z,7.50
2022-11-18T07:24:10.916Z,7.60
2022-11-18T07:27:21.177Z,7.70
2022-11-18T07:30:31.728Z,7.70
2022-11-18T07:33:38.296Z,6.90
2022-11-18T07:36:45.550Z,7.80
2022-11-18T07:39:50.403Z,7.90
2022-11-18T07:42:58.808Z,9.30
2022-11-18T07:46:15.641Z,9.80
2022-11-18T07:49:22.840Z,8.20
2022-11-18T07:52:27.888Z,10.30
2022-11-18T07:55:38.798Z,8.00
2022-11-18T07:58:47.952Z,8.10
2022-11-18T08:02:02.254Z,7.70
2022-11-18T08:05:10.170Z,7.70
2022-11-18T08:08:20.701Z,7.90
2022-11-18T08:11:28.092Z,5.80
2022-11-18T08:14:36.321Z,9.60
2022-11-18T08:17:44.479Z,8.80
2022-11-18T08:20:54.644Z,9.80
2022-11-18T08:24:05.028Z,9.20
2022-11-18T08:27:09.273Z,7.90
2022-11-18T08:30:16.160Z,7.80
2022-11-18T08:33:23.092Z,8.00
2022-11-18T08:36:31.772Z,7.20
2022-11-18T08:39:37.897Z,8.80
2022-11-18T08:42:42.708Z,9.80
2022-11-18T08:45:51.388Z,7.80
2022-11-18T08:49:00.912Z,9.60
2022-11-18T08:52:05.788Z,9.00
2022-11-18T08:55:11.648Z,6.00
2022-11-18T08:58:19.923Z,8.20
2022-11-18T09:01:24.961Z,8.10
2022-11-18T09:04:32.155Z,8.60
2022-11-18T09:07:38.724Z,7.90
2022-11-18T09:10:44.330Z,6.20
2022-11-18T09:17:20.673Z,8.30
2022-11-18T09:20:27.859Z,8.30
2022-11-18T09:23:34.499Z,9.50
2022-11-18T09:26:41.688Z,8.00
2022-11-18T09:29:46.801Z,7.30
2022-11-18T09:32:52.208Z,8.00
2022-11-18T09:35:58.948Z,8.20
2022-11-18T09:39:08.502Z,6.10
2022-11-18T09:42:51.561Z,7.70
2022-11-18T09:46:05.657Z,10.70
2022-11-18T09:49:17.012Z,8.50
2022-11-18T09:52:35.698Z,8.50
2022-11-18T09:55:43.789Z,8.50
2022-11-18T09:58:50.562Z,10.30
2022-11-18T10:02:23.651Z,8.80
2022-11-18T10:05:32.054Z,7.30
2022-11-18T10:08:57.205Z,8.70
2022-11-18T10:12:25.892Z,9.10
2022-11-18T10:15:46.730Z,9.00
2022-11-18T10:19:15.897Z,10.20
2022-11-18T10:22:32.242Z,9.40
2022-11-18T10:25:56.418Z,10.90
2022-11-18T10:29:02.990Z,8.70
2022-11-18T10:32:13.212Z,8.70
2022-11-18T10:35:30.506Z,8.60
2022-11-18T10:38:34.048Z,8.60
2022-11-18T10:41:48.112Z,8.60
2022-11-18T10:44:51.574Z,8.60
2022-11-18T10:48:09.924Z,8.60
2022-11-18T10:51:25.828Z,8.60
2022-11-18T10:54:29.202Z,8.80
2022-11-18T10:57:39.139Z,8.60
2022-11-18T11:00:47.089Z,8.70
2022-11-18T11:04:02.012Z,8.70
2022-11-18T11:07:26.581Z,8.70
2022-11-18T11:10:30.464Z,8.70
2022-11-18T11:13:45.110Z,8.70
2022-11-18T11:16:59.091Z,8.80
2022-11-18T11:20:16.645Z,8.70
2022-11-18T11:23:23.680Z,8.70
2022-11-18T11:30:12.634Z,8.70
2022-11-18T11:33:39.237Z,8.70
2022-11-18T11:36:52.513Z,8.70
2022-11-18T11:40:16.896Z,9.00
2022-11-18T11:43:35.995Z,8.70
2022-11-18T11:47:11.253Z,8.70
2022-11-18T11:50:23.770Z,8.70
2022-11-18T11:53:51.913Z,8.80
2022-11-18T11:57:00.455Z,8.80
2022-11-18T12:00:10.622Z,7.90
2022-11-18T12:03:51.426Z,8.80
2022-11-18T12:06:58.304Z,8.80
2022-11-18T12:10:26.606Z,8.20
2022-11-18T12:13:44.763Z,8.80
2022-11-18T12:16:58.238Z,8.80
2022-11-18T12:20:41.754Z,8.80
2022-11-18T12:24:31.018Z,8.80
2022-11-18T12:28:09.556Z,8.60
2022-11-18T12:31:43.168Z,8.80
2022-11-18T12:34:47.170Z,8.70
2022-11-18T12:38:29.796Z,8.80
2022-11-18T12:42:13.431Z,8.80
2022-11-18T12:46:01.375Z,8.80
2022-11-18T12:50:05.697Z,8.80
2022-11-18T12:53:34.286Z,8.80
2022-11-18T12:56:40.051Z,8.80
2022-11-18T12:59:43.633Z,8.80
2022-11-18T13:02:53.381Z,8.80
2022-11-18T13:06:09.399Z,8.80
2022-11-18T13:09:19.229Z,8.80
2022-11-18T13:12:25.827Z,8.80
2022-11-18T13:15:47.536Z,8.80
2022-11-18T13:18:54.415Z,8.80
2022-11-18T13:22:18.626Z,8.70
2022-11-18T13:25:27.525Z,8.70
2022-11-18T13:28:40.150Z,8.60
2022-11-18T13:32:00.126Z,8.60
2022-11-18T13:35:14.906Z,8.60
2022-11-18T13:38:28.316Z,8.60
2022-11-18T13:41:36.475Z,8.60
2022-11-18T13:44:41.375Z,8.50
2022-11-18T13:47:50.015Z,7.80
2022-11-18T13:50:57.122Z,8.40
2022-11-18T13:54:00.793Z,9.30
2022-11-18T13:57:06.748Z,8.40
2022-11-18T14:00:24.765Z,8.30
2022-11-18T14:03:35.061Z,8.30
2022-11-18T14:06:40.905Z,8.20
2022-11-18T14:09:55.672Z,8.20
2022-11-18T14:13:04.368Z,8.10
2022-11-18T14:16:37.400Z,8.10
2022-11-18T14:19:42.343Z,8.10
2022-11-18T14:22:48.877Z,8.10
2022-11-18T14:25:52.930Z,8.00
2022-11-18T14:28:57.859Z,8.00
2022-11-18T14:32:14.880Z,8.00
2022-11-18T14:35:18.165Z,8.00
2022-11-18T14:41:50.305Z,7.90
2022-11-18T14:44:53.765Z,7.90
2022-11-18T14:47:59.033Z,8.80
2022-11-18T14:51:04.040Z,7.70
2022-11-18T14:54:07.965Z,7.70
2022-11-18T14:57:16.979Z,7.60
2022-11-18T15:00:20.883Z,7.50
2022-11-18T15:03:26.532Z,7.40
2022-11-18T15:06:29.966Z,7.30
2022-11-18T15:09:33.577Z,7.20
2022-11-18T15:12:36.960Z,7.00
2022-11-18T15:15:40.656Z,7.10
2022-11-18T15:18:48.286Z,6.90
2022-11-18T15:21:52.066Z,6.90
2022-11-18T15:24:55.480Z,6.90
2022-11-18T15:28:00.854Z,6.80
2022-11-18T15:31:04.999Z,6.80
2022-11-18T15:34:09.871Z,6.70
2022-11-18T15:37:14.265Z,6.70
2022-11-18T15:40:18.280Z,6.60
2022-11-18T15:43:21.594Z,6.60
2022-11-18T15:46:27.773Z,6.60
2022-11-18T15:49:33.405Z,6.50
2022-11-18T15:52:38.536Z,6.50
2022-11-18T15:55:42.048Z,6.50
2022-11-18T15:58:46.868Z,6.50
2022-11-18T16:01:54.205Z,6.50
2022-11-18T16:04:59.391Z,6.40
2022-11-18T16:08:07.329Z,6.40
2022-11-18T16:11:28.320Z,6.40
2022-11-18T16:14:32.634Z,6.40
2022-11-18T16:17:35.962Z,6.30
2022-11-18T16:20:40.999Z,6.40
2022-11-18T16:23:44.807Z,6.40
2022-11-18T16:26:49.506Z,6.40
2022-11-18T16:29:53.003Z,7.20
2022-11-18T16:32:56.920Z,6.50
2022-11-18T16:36:02.201Z,6.50
2022-11-18T16:39:08.433Z,6.50
2022-11-18T16:42:14.083Z,6.50
2022-11-18T16:45:17.808Z,6.40
2022-11-18T16:48:21.806Z,6.40
2022-11-18T16:51:29.012Z,6.40
2022-11-18T16:54:38.267Z,6.30
2022-11-18T16:57:44.504Z,6.30
2022-11-18T17:01:16.370Z,6.30
2022-11-18T17:04:12.792Z,6.30
2022-11-18T17:07:18.003Z,6.20
2022-11-18T17:10:22.055Z,6.20
2022-11-18T17:13:25.805Z,6.20
2022-11-18T17:16:29.293Z,6.10
2022-11-18T17:19:32.751Z,6.20
2022-11-18T17:22:38.230Z,5.90
2022-11-18T17:25:43.342Z,6.10
2022-11-18T17:28:47.460Z,6.10
2022-11-18T17:31:50.770Z,6.00
2022-11-18T17:34:54.704Z,5.90
2022-11-18T17:37:59.989Z,6.00
2022-11-18T17:41:04.031Z,6.00
2022-11-18T17:44:08.974Z,5.90
2022-11-18T17:47:12.577Z,5.90
2022-11-18T17:50:16.182Z,6.70
2022-11-18T17:53:22.960Z,5.90
2022-11-18T17:56:26.663Z,5.80
2022-11-18T17:59:30.068Z,5.80
2022-11-18T18:02:34.918Z,5.80
2022-11-18T18:05:38.720Z,5.80
2022-11-18T18:08:44.475Z,5.80
2022-11-18T18:11:48.595Z,5.80
2022-11-18T18:14:51.638Z,5.80
2022-11-18T18:17:55.269Z,5.80
2022-11-18T18:21:05.412Z,5.80
2022-11-18T18:24:15.018Z,5.70
2022-11-18T18:27:18.588Z,5.70
2022-11-18T18:30:22.082Z,5.70
2022-11-18T18:33:26.225Z,6.00
2022-11-18T18:36:29.832Z,5.60
2022-11-18T18:39:35.072Z,6.30
2022-11-18T18:42:39.389Z,5.60
2022-11-18T18:46:00.490Z,5.50
2022-11-18T18:49:07.780Z,6.70
2022-11-18T18:52:12.286Z,5.50
2022-11-18T18:55:16.922Z,5.50
2022-11-18T18:58:20.836Z,5.40
2022-11-18T19:01:25.113Z,5.40
2022-11-18T19:04:29.089Z,5.40
2022-11-18T19:07:33.501Z,5.40
2022-11-18T19:10:40.532Z,5.40
2022-11-18T19:13:42.946Z,5.40
2022-11-18T19:16:48.029Z,5.40
2022-11-18T19:20:12.083Z,5.40
2022-11-18T19:23:17.518Z,5.40
2022-11-18T19:26:23.037Z,6.00
2022-11-18T19:29:26.775Z,5.40
2022-11-18T19:32:30.393Z,5.40
2022-11-18T19:35:34.075Z,5.40
2022-11-18T19:38:37.679Z,5.30
2022-11-18T19:41:42.735Z,5.30
2022-11-18T19:44:46.336Z,5.40
2022-11-18T19:47:50.260Z,5.40
2022-11-18T19:50:54.119Z,5.40
2022-11-18T19:53:59.784Z,5.60
2022-11-18T19:57:07.372Z,5.30
2022-11-18T20:00:13.121Z,5.60
2022-11-18T20:03:16.754Z,5.40
2022-11-18T20:06:26.405Z,6.10
2022-11-18T20:09:30.518Z,5.30
2022-11-18T20:12:35.555Z,5.30
2022-11-18T20:15:39.041Z,5.30
2022-11-18T20:18:43.072Z,6.40
2022-11-18T20:21:48.650Z,5.30
2022-11-18T20:24:52.628Z,5.30
2022-11-18T20:27:57.869Z,4.60
2022-11-18T20:31:01.764Z,5.30
2022-11-18T20:34:07.977Z,5.30
2022-11-18T20:37:14.921Z,5.20
2022-11-18T20:40:18.917Z,5.20
2022-11-18T20:43:23.661Z,5.20
2022-11-18T20:46:27.985Z,5.10
2022-11-18T20:49:31.513Z,5.10
2022-11-18T20:52:35.681Z,5.10
2022-11-18T20:55:39.138Z,5.10
2022-11-18T20:58:44.661Z,5.10
2022-11-18T21:01:49.112Z,5.00
2022-11-18T21:04:52.583Z,4.90
2022-11-18T21:07:57.245Z,4.90
2022-11-18T21:11:03.678Z,4.80
2022-11-18T21:14:24.560Z,4.80
2022-11-18T21:17:29.117Z,4.60
2022-11-18T21:20:50.877Z,4.70
2022-11-18T21:23:56.204Z,4.60
2022-11-18T21:27:01.861Z,4.50
2022-11-18T21:30:08.947Z,5.60
2022-11-18T21:33:14.377Z,4.40
2022-11-18T21:36:18.697Z,4.40
2022-11-18T21:39:22.601Z,4.40
2022-11-18T21:42:26.314Z,4.40
2022-11-18T21:45:31.150Z,5.20
2022-11-18T21:48:34.953Z,4.30
2022-11-18T21:51:39.558Z,4.30
2022-11-18T21:54:43.289Z,4.20
2022-11-18T21:57:46.899Z,4.70
2022-11-18T22:00:51.564Z,4.20
2022-11-18T22:03:57.901Z,4.20
2022-11-18T22:07:01.635Z,4.20
2022-11-18T22:10:06.342Z,4.40
2022-11-18T22:13:09.639Z,4.10
2022-11-18T22:16:17.404Z,4.10
2022-11-18T22:19:21.202Z,4.10
2022-11-18T22:22:24.497Z,4.00
2022-11-18T22:25:27.845Z,4.00
2022-11-18T22:28:31.857Z,4.00
2022-11-18T22:31:36.586Z,4.00
2022-11-18T22:34:40.064Z,3.90
2022-11-18T22:37:43.589Z,3.00
2022-11-18T22:40:47.074Z,3.90
2022-11-18T22:43:49.442Z,3.90
2022-11-18T22:46:54.982Z,3.10
2022-11-18T22:49:59.130Z,3.90
2022-11-18T22:53:02.529Z,3.90
2022-11-18T22:56:09.099Z,3.70
2022-11-18T22:59:13.301Z,3.80
2022-11-18T23:02:18.151Z,4.00
2022-11-18T23:05:21.827Z,3.80
2022-11-18T23:08:26.743Z,3.80
2022-11-18T23:11:56.187Z,3.00
2022-11-18T23:14:59.679Z,3.80
2022-11-18T23:18:08.687Z,3.80
2022-11-18T23:21:15.423Z,3.80
2022-11-18T23:24:20.658Z,3.80
2022-11-18T23:27:23.991Z,3.30
2022-11-18T23:30:27.520Z,3.80
2022-11-18T23:33:32.152Z,3.80
2022-11-18T23:36:35.383Z,3.80
2022-11-18T23:39:39.065Z,4.40
2022-11-18T23:42:42.484Z,3.80
2022-11-18T23:45:46.269Z,3.70
2022-11-18T23:48:50.869Z,3.70
2022-11-18T23:51:54.297Z,3.60
2022-11-18T23:54:59.765Z,3.00
2022-11-18T23:58:03.066Z,3.50
